Time;durP1;ratioP1;P1;durP2;ratioP2;P2;SDS_P1;SDS_P2;PMS_P1;PMS_P2;Temp;Humidity;BMP_temperature;BMP_pressure;BME280_temperature;BME280_humidity;BME280_pressure;Samples;Min_cycle;Max_cycle;Signal;HPM_P1;HPM_P2
2022/03/06 00:00:13;;;;;;;40.78;24.98;;;;;;;1.78;52.97;100757.56;5023296;28;20414;-77
2022/03/06 00:02:39;;;;;;;41.20;25.98;;;;;;;1.81;52.50;100756.41;5029287;28;20482;-77
2022/03/06 00:05:05;;;;;;;46.37;27.10;;;;;;;1.80;52.91;100746.72;5016497;28;20476;-77
2022/03/06 00:07:30;;;;;;;45.63;26.77;;;;;;;1.80;53.36;100749.38;5028288;28;20407;-77
2022/03/06 00:09:56;;;;;;;44.97;27.13;;;;;;;1.81;53.18;100756.41;5030081;28;20395;-77
2022/03/06 00:12:21;;;;;;;38.00;24.10;;;;;;;1.83;53.51;100749.84;5014660;28;20810;-77
2022/03/06 00:14:46;;;;;;;36.53;22.00;;;;;;;1.89;53.36;100750.94;5015706;28;20404;-78
2022/03/06 00:17:11;;;;;;;26.43;17.63;;;;;;;1.89;53.47;100745.59;5023032;28;20466;-77
2022/03/06 00:19:37;;;;;;;21.90;15.17;;;;;;;1.89;53.16;100748.28;5021227;28;20410;-77
2022/03/06 00:22:03;;;;;;;22.70;15.07;;;;;;;1.87;53.38;100751.16;5029821;28;20429;-78
2022/03/06 00:24:28;;;;;;;19.13;14.17;;;;;;;1.87;53.16;100744.97;5029432;28;20479;-77
2022/03/06 00:26:53;;;;;;;19.67;14.00;;;;;;;1.86;53.08;100745.97;5024344;28;20487;-78
2022/03/06 00:29:19;;;;;;;21.17;15.00;;;;;;;1.82;53.44;100740.16;5021271;28;20506;-77
2022/03/06 00:31:44;;;;;;;23.30;15.30;;;;;;;1.81;52.95;100746.50;5026588;28;20495;-78
2022/03/06 00:34:10;;;;;;;23.10;15.43;;;;;;;1.78;52.93;100736.19;5029536;28;20490;-77
2022/03/06 00:36:37;;;;;;;20.03;14.50;;;;;;;1.76;53.24;100738.22;5029295;28;20752;-78
2022/03/06 00:39:03;;;;;;;25.47;16.83;;;;;;;1.71;53.44;100743.28;5024247;28;20396;-77
2022/03/06 00:41:29;;;;;;;33.97;20.13;;;;;;;1.68;53.46;100734.81;5021201;28;20397;-77
2022/03/06 00:43:54;;;;;;;33.90;20.33;;;;;;;1.66;53.36;100742.97;5047783;28;20497;-77
2022/03/06 00:46:19;;;;;;;29.50;19.10;;;;;;;1.59;53.63;100742.03;5029650;28;20539;-77
2022/03/06 00:48:44;;;;;;;27.00;16.35;;;;;;;1.60;53.32;100748.22;5027876;28;20781;-78
2022/03/06 00:51:12;;;;;;;24.07;15.43;;;;;;;1.58;53.69;100748.41;5026884;28;20465;-77
2022/03/06 00:53:37;;;;;;;20.65;13.85;;;;;;;1.56;53.36;100745.06;5034107;28;20383;-77
2022/03/06 00:56:03;;;;;;;21.07;13.97;;;;;;;1.56;53.47;100747.75;5018587;28;20409;-77
2022/03/06 00:58:28;;;;;;;17.75;13.27;;;;;;;1.56;53.28;100745.06;5026631;28;20915;-77
2022/03/06 01:00:53;;;;;;;19.67;13.37;;;;;;;1.50;53.27;100743.97;5029050;28;20482;-78
2022/03/06 01:03:20;;;;;;;21.50;13.90;;;;;;;1.46;53.04;100747.16;5065612;28;20395;-77
2022/03/06 01:05:46;;;;;;;20.63;13.45;;;;;;;1.50;53.08;100748.47;5032615;28;20390;-77
2022/03/06 01:08:12;;;;;;;19.43;13.27;;;;;;;1.47;53.57;100751.50;5027299;28;20405;-78
2022/03/06 01:10:39;;;;;;;18.98;13.23;;;;;;;1.48;53.75;100747.81;5058867;28;20396;-77
2022/03/06 01:13:06;;;;;;;17.97;13.27;;;;;;;1.47;54.32;100748.81;5027974;28;20396;-77
2022/03/06 01:15:32;;;;;;;19.17;14.07;;;;;;;1.46;53.87;100752.50;5030293;28;20472;-77
2022/03/06 01:17:58;;;;;;;19.58;13.38;;;;;;;1.45;54.17;100754.31;5014201;28;20401;-78
2022/03/06 01:20:24;;;;;;;18.17;12.77;;;;;;;1.38;54.09;100750.69;5024768;28;20403;-78
2022/03/06 01:22:50;;;;;;;20.27;12.35;;;;;;;1.34;54.54;100753.94;5034175;28;20402;-78
2022/03/06 01:25:16;;;;;;;17.15;12.68;;;;;;;1.34;54.74;100754.75;5017834;28;20407;-77
2022/03/06 01:27:42;;;;;;;17.23;11.93;;;;;;;1.32;54.20;100753.25;5028371;28;20951;-77
2022/03/06 01:30:09;;;;;;;18.95;13.52;;;;;;;1.37;54.75;100764.25;5030870;28;20485;-77
2022/03/06 01:32:34;;;;;;;17.60;12.48;;;;;;;1.37;54.83;100761.59;5020495;28;20435;-78
2022/03/06 01:35:00;;;;;;;18.83;13.80;;;;;;;1.39;54.25;100763.06;5038008;28;20430;-77
2022/03/06 01:37:26;;;;;;;20.83;13.73;;;;;;;1.41;54.20;100765.56;5029028;28;20864;-77
2022/03/06 01:39:52;;;;;;;21.70;13.30;;;;;;;1.40;54.32;100774.56;5016040;28;20420;-78
2022/03/06 01:42:18;;;;;;;18.35;13.00;;;;;;;1.39;54.84;100764.88;5023762;28;20451;-77
2022/03/06 01:44:50;;;;;;;20.48;13.95;;;;;;;1.37;54.27;100761.59;5017292;28;20436;-77
2022/03/06 01:47:39;;;;;;;16.95;12.70;;;;;;;1.35;54.05;100760.94;5033148;28;20423;-77
2022/03/06 01:50:08;;;;;;;17.93;12.60;;;;;;;1.36;54.79;100765.25;5032601;28;20433;-77
2022/03/06 01:52:33;;;;;;;20.40;13.07;;;;;;;1.33;54.05;100754.94;5017689;28;20399;-77
2022/03/06 01:54:58;;;;;;;18.83;13.03;;;;;;;1.31;54.26;100759.63;5015762;28;20399;-77
2022/03/06 01:57:25;;;;;;;22.07;14.03;;;;;;;1.31;54.91;100764.97;5027456;28;20437;-77
2022/03/06 01:59:50;;;;;;;20.93;13.50;;;;;;;1.29;54.79;100769.63;5022350;28;20761;-77
2022/03/06 02:02:16;;;;;;;17.60;12.73;;;;;;;1.24;54.33;100762.19;5017949;28;20419;-77
2022/03/06 02:04:41;;;;;;;17.60;13.03;;;;;;;1.25;55.10;100757.66;5023425;28;20430;-78
2022/03/06 02:07:06;;;;;;;17.55;12.82;;;;;;;1.25;54.89;100749.66;5013442;28;20784;-77
2022/03/06 02:09:32;;;;;;;18.40;13.03;;;;;;;1.25;54.15;100757.66;5026349;28;20419;-77
2022/03/06 02:14:40;;;;;;;17.92;12.93;;;;;;;1.21;55.29;100751.03;5026565;28;20408;-77
2022/03/06 02:17:06;;;;;;;21.47;13.10;;;;;;;1.20;55.27;100750.19;5019980;28;20411;-78
2022/03/06 02:19:31;;;;;;;16.60;12.57;;;;;;;1.17;55.25;100755.88;5030376;28;20415;-77
2022/03/06 02:21:56;;;;;;;19.23;13.47;;;;;;;1.17;55.20;100758.56;5048274;28;20858;-78
2022/03/06 02:24:22;;;;;;;19.83;14.03;;;;;;;1.15;55.67;100757.06;5028517;28;20758;-77
2022/03/06 02:26:47;;;;;;;21.77;13.67;;;;;;;1.12;55.26;100749.41;5031494;28;20411;-77
2022/03/06 02:29:12;;;;;;;19.27;13.27;;;;;;;1.09;55.39;100747.91;5022860;28;20413;-77
2022/03/06 02:31:39;;;;;;;19.07;13.37;;;;;;;1.08;56.21;100748.09;5018123;28;20805;-78
2022/03/06 02:34:04;;;;;;;19.30;12.77;;;;;;;1.08;55.69;100746.28;5029108;28;20409;-77
2022/03/06 02:36:30;;;;;;;21.00;13.82;;;;;;;1.05;55.52;100743.97;5026059;28;20397;-77
2022/03/06 02:38:55;;;;;;;18.58;13.45;;;;;;;1.00;56.33;100746.31;5021761;28;20886;-77
2022/03/06 02:41:20;;;;;;;20.27;13.97;;;;;;;1.00;56.17;100746.31;5030777;28;20411;-77
2022/03/06 02:43:45;;;;;;;19.37;13.67;;;;;;;0.96;56.02;100751.16;5023375;28;20478;-77
2022/03/06 02:46:11;;;;;;;18.58;13.32;;;;;;;0.95;55.93;100743.34;5023148;28;20411;-77
2022/03/06 02:48:36;;;;;;;21.07;14.23;;;;;;;0.93;55.77;100750.69;5032237;28;20426;-78
2022/03/06 02:51:01;;;;;;;18.77;13.47;;;;;;;0.93;56.79;100746.19;5020807;28;20397;-78
2022/03/06 02:53:27;;;;;;;21.45;13.70;;;;;;;0.92;56.76;100755.19;5026010;28;20469;-77
2022/03/06 02:55:52;;;;;;;19.37;13.97;;;;;;;0.91;56.67;100747.38;5018647;28;20511;-78
2022/03/06 02:58:18;;;;;;;20.20;13.87;;;;;;;0.88;56.69;100747.72;5024994;28;20472;-77
2022/03/06 03:00:44;;;;;;;18.85;13.70;;;;;;;0.85;56.92;100748.06;5022964;28;20403;-77
2022/03/06 03:03:09;;;;;;;19.13;13.75;;;;;;;0.83;56.85;100750.91;5031864;28;20818;-78
2022/03/06 03:05:34;;;;;;;19.27;13.43;;;;;;;0.80;56.90;100745.09;5030293;28;20387;-78
2022/03/06 03:08:00;;;;;;;23.77;14.27;;;;;;;0.75;56.71;100748.28;5014426;28;20415;-77
2022/03/06 03:10:26;;;;;;;18.87;13.90;;;;;;;0.74;56.85;100759.97;5016494;28;20399;-78
2022/03/06 03:12:52;;;;;;;20.50;13.63;;;;;;;0.73;57.22;100757.44;5018866;28;20487;-78
2022/03/06 03:15:18;;;;;;;18.35;12.80;;;;;;;0.72;56.77;100764.66;5026228;28;20449;-77
2022/03/06 03:17:44;;;;;;;19.25;13.85;;;;;;;0.71;57.25;100765.63;5031676;28;20418;-78
2022/03/06 03:20:10;;;;;;;20.45;13.80;;;;;;;0.69;57.32;100764.97;5024350;28;20404;-78
2022/03/06 03:22:36;;;;;;;20.17;14.05;;;;;;;0.68;57.52;100760.66;5030813;28;20486;-78
2022/03/06 03:25:03;;;;;;;22.20;14.32;;;;;;;0.68;57.53;100759.81;5031532;28;20800;-78
2022/03/06 03:27:28;;;;;;;19.77;13.93;;;;;;;0.66;57.24;100767.19;5015692;28;20395;-78
2022/03/06 03:29:53;;;;;;;19.93;13.90;;;;;;;0.63;57.22;100763.00;5031831;28;20409;-78
2022/03/06 03:32:19;;;;;;;20.40;14.27;;;;;;;0.62;57.48;100777.34;5020139;28;20792;-77
2022/03/06 03:34:44;;;;;;;19.63;13.80;;;;;;;0.60;57.75;100767.84;5028497;28;20414;-78
2022/03/06 03:37:09;;;;;;;19.93;14.40;;;;;;;0.58;57.08;100775.19;5060469;28;20841;-77
2022/03/06 03:39:34;;;;;;;20.03;14.20;;;;;;;0.55;57.50;100764.88;5029565;28;20407;-78
2022/03/06 03:42:00;;;;;;;20.73;14.63;;;;;;;0.56;57.71;100772.69;5029422;28;20466;-78
2022/03/06 03:44:25;;;;;;;21.60;15.47;;;;;;;0.58;58.01;100776.03;5033162;28;20886;-77
2022/03/06 03:46:50;;;;;;;20.83;15.07;;;;;;;0.56;58.28;100772.69;5045169;28;20888;-78
2022/03/06 03:49:15;;;;;;;20.10;13.80;;;;;;;0.55;58.27;100772.88;5024997;28;20419;-77
2022/03/06 03:51:42;;;;;;;22.20;14.35;;;;;;;0.53;57.60;100771.19;5026873;28;20964;-78
2022/03/06 03:54:07;;;;;;;21.38;14.63;;;;;;;0.51;58.27;100781.22;5018835;28;20400;-77
2022/03/06 03:56:33;;;;;;;20.67;14.60;;;;;;;0.46;58.02;100777.41;5046150;28;20391;-77
2022/03/06 03:58:58;;;;;;;20.60;14.20;;;;;;;0.42;58.40;100779.59;5059439;28;20888;-77
2022/03/06 04:01:23;;;;;;;20.40;15.13;;;;;;;0.32;57.94;100775.44;5016051;28;20422;-77
2022/03/06 04:03:49;;;;;;;20.87;14.40;;;;;;;0.28;58.54;100776.78;5031469;28;20502;-77
2022/03/06 04:06:14;;;;;;;24.20;14.53;;;;;;;0.35;59.07;100781.28;5030256;28;20461;-78
2022/03/06 04:08:40;;;;;;;21.20;14.40;;;;;;;0.39;59.21;100795.09;5013293;28;20423;-78
2022/03/06 04:11:05;;;;;;;22.27;14.77;;;;;;;0.38;58.92;100793.44;5021575;28;20452;-77
2022/03/06 04:13:31;;;;;;;19.50;13.50;;;;;;;0.39;58.79;100784.44;5035225;28;20391;-77
2022/03/06 04:15:56;;;;;;;20.43;13.90;;;;;;;0.38;59.06;100796.09;5019542;28;20756;-78
2022/03/06 04:18:21;;;;;;;19.52;14.02;;;;;;;0.36;59.15;100793.59;5032257;28;20766;-77
2022/03/06 04:20:47;;;;;;;19.57;13.83;;;;;;;0.34;58.92;100803.59;5029576;28;20420;-78
2022/03/06 04:23:12;;;;;;;22.17;14.50;;;;;;;0.27;58.89;100797.28;5065592;28;20422;-78
2022/03/06 04:25:37;;;;;;;20.83;14.27;;;;;;;0.27;58.54;100807.09;5022830;28;20404;-78
2022/03/06 04:28:03;;;;;;;22.45;15.55;;;;;;;0.31;58.69;100803.09;5049604;28;20832;-78
2022/03/06 04:30:30;;;;;;;24.73;15.43;;;;;;;0.34;58.09;100810.75;5019675;28;20403;-78
2022/03/06 04:32:55;;;;;;;21.45;14.85;;;;;;;0.36;58.25;100814.91;5033138;28;20751;-78
2022/03/06 04:35:20;;;;;;;22.13;14.93;;;;;;;0.36;58.70;100822.91;5022777;28;20408;-78
2022/03/06 04:37:46;;;;;;;22.03;14.60;;;;;;;0.38;58.33;100820.09;5015467;28;20547;-78
2022/03/06 04:40:11;;;;;;;22.23;15.13;;;;;;;0.35;58.74;100821.25;5036759;28;20493;-78
2022/03/06 04:42:37;;;;;;;22.53;15.43;;;;;;;0.38;58.56;100823.59;5034485;28;20407;-78
2022/03/06 04:45:03;;;;;;;21.50;15.23;;;;;;;0.39;58.60;100816.44;5023690;28;20397;-78
2022/03/06 04:47:28;;;;;;;22.67;14.65;;;;;;;0.40;59.31;100826.06;5028699;28;20398;-78
2022/03/06 04:49:54;;;;;;;21.77;14.90;;;;;;;0.40;58.90;100829.56;5030241;28;20871;-78
2022/03/06 04:52:19;;;;;;;22.03;14.47;;;;;;;0.40;59.03;100834.06;5033868;28;20456;-78
2022/03/06 04:54:45;;;;;;;23.83;15.37;;;;;;;0.37;58.95;100827.25;5039879;28;20401;-78
2022/03/06 04:57:10;;;;;;;21.07;14.70;;;;;;;0.37;59.30;100831.75;5028186;28;20858;-78
2022/03/06 04:59:35;;;;;;;20.10;14.57;;;;;;;0.33;58.86;100831.25;5018331;28;20895;-78
2022/03/06 05:02:01;;;;;;;20.70;14.97;;;;;;;0.16;58.94;100832.31;5033218;28;20434;-77
2022/03/06 05:04:26;;;;;;;21.30;14.30;;;;;;;0.06;59.22;100834.31;5024448;28;20950;-78
2022/03/06 05:06:51;;;;;;;21.83;15.17;;;;;;;0.04;58.51;100833.63;5023389;28;20441;-77
2022/03/06 05:09:17;;;;;;;23.43;16.10;;;;;;;0.02;58.37;100835.63;5028974;28;20415;-78
2022/03/06 05:11:42;;;;;;;22.88;14.88;;;;;;;0.00;58.43;100837.66;5033831;28;20777;-78
2022/03/06 05:14:08;;;;;;;19.75;13.80;;;;;;;0.02;58.71;100840.13;5058555;28;20396;-78
2022/03/06 05:16:33;;;;;;;22.33;14.98;;;;;;;0.00;58.35;100832.31;5014185;28;20420;-77
2022/03/06 05:18:59;;;;;;;23.13;15.33;;;;;;;0.02;58.97;100840.13;5055665;28;20427;-78
2022/03/06 05:21:25;;;;;;;21.48;14.60;;;;;;;0.06;58.65;100842.31;5031148;28;20405;-78
2022/03/06 05:23:52;;;;;;;20.45;14.48;;;;;;;0.06;58.69;100838.81;5024014;28;21374;-78
2022/03/06 05:26:18;;;;;;;21.48;15.18;;;;;;;0.08;58.17;100842.94;5015934;28;20480;-78
2022/03/06 05:28:43;;;;;;;21.83;15.35;;;;;;;0.14;58.60;100844.94;5019557;28;20412;-78
2022/03/06 05:31:09;;;;;;;22.90;15.30;;;;;;;0.21;58.79;100853.09;5016180;28;20393;-78
2022/03/06 05:33:34;;;;;;;21.70;14.93;;;;;;;0.17;59.24;100844.59;5031831;28;20391;-77
2022/03/06 05:36:00;;;;;;;21.17;14.73;;;;;;;0.01;59.18;100847.28;5022641;28;20436;-78
2022/03/06 05:38:25;;;;;;;20.15;14.13;;;;;;;0.03;59.29;100849.78;5014013;28;20436;-77
2022/03/06 05:40:51;;;;;;;21.90;14.10;;;;;;;0.08;59.32;100852.78;5030989;28;20395;-78
2022/03/06 05:43:16;;;;;;;21.70;14.27;;;;;;;0.11;59.76;100850.59;5029173;28;20447;-78
2022/03/06 05:45:41;;;;;;;21.70;14.37;;;;;;;0.11;59.43;100855.94;5026338;28;20442;-78
2022/03/06 05:48:07;;;;;;;24.42;15.15;;;;;;;0.11;59.13;100855.94;5036166;28;20412;-78
2022/03/06 05:50:32;;;;;;;21.73;15.63;;;;;;;0.11;59.78;100857.75;5013734;28;20463;-78
2022/03/06 05:52:57;;;;;;;21.27;14.47;;;;;;;0.10;59.56;100867.59;5030130;28;20791;-78
2022/03/06 05:55:22;;;;;;;23.00;14.88;;;;;;;0.08;60.00;100861.59;5034243;28;20497;-78
2022/03/06 05:57:48;;;;;;;21.37;14.20;;;;;;;0.08;59.46;100864.28;5028513;28;20412;-78
2022/03/06 06:00:17;;;;;;;19.53;14.07;;;;;;;0.05;60.27;100869.94;5063402;28;20411;-78
2022/03/06 06:02:43;;;;;;;21.30;13.95;;;;;;;0.03;60.33;100871.09;5047852;28;20522;-79
2022/03/06 06:05:08;;;;;;;20.13;13.43;;;;;;;0.02;59.97;100872.09;5029918;28;20415;-77
2022/03/06 06:07:35;;;;;;;20.30;13.48;;;;;;;0.00;60.01;100866.94;5019442;28;20934;-78
2022/03/06 06:10:00;;;;;;;20.27;13.90;;;;;;;0.00;60.65;100875.75;5044081;28;20779;-78
2022/03/06 06:12:26;;;;;;;21.67;14.43;;;;;;;-0.10;60.63;100874.28;5027252;28;20415;-76
2022/03/06 06:14:52;;;;;;;23.00;14.20;;;;;;;-0.13;60.67;100875.41;5040198;28;20605;-78
2022/03/06 06:17:17;;;;;;;18.98;13.90;;;;;;;-0.11;61.04;100872.59;5019740;28;20432;-77
2022/03/06 06:19:42;;;;;;;21.03;13.93;;;;;;;-0.11;61.29;100876.09;5026883;28;20414;-78
2022/03/06 06:22:08;;;;;;;19.23;13.13;;;;;;;-0.07;61.34;100871.28;5016671;28;20467;-77
2022/03/06 06:24:33;;;;;;;26.87;14.87;;;;;;;-0.07;61.07;100869.41;5027703;28;20426;-77
2022/03/06 06:26:59;;;;;;;21.40;14.57;;;;;;;0.00;61.33;100878.41;5030908;28;20414;-80
2022/03/06 06:29:24;;;;;;;20.48;14.05;;;;;;;0.06;61.53;100868.09;5035581;28;20429;-77
2022/03/06 06:31:51;;;;;;;21.77;14.50;;;;;;;0.09;61.89;100881.94;5029433;28;20419;-77
2022/03/06 06:34:17;;;;;;;22.35;15.65;;;;;;;0.14;61.05;100878.75;5030319;28;20457;-79
2022/03/06 06:36:42;;;;;;;26.13;16.27;;;;;;;0.20;60.92;100876.25;5043028;28;20501;-77
2022/03/06 06:39:09;;;;;;;23.63;16.03;;;;;;;0.26;60.52;100878.25;5020788;28;20487;-77
2022/03/06 06:41:36;;;;;;;23.63;14.88;;;;;;;0.28;59.61;100876.25;5027958;28;20513;-78
2022/03/06 06:44:02;;;;;;;22.57;15.00;;;;;;;0.29;60.39;100879.75;5028559;28;20418;-79
2022/03/06 06:46:27;;;;;;;21.97;15.03;;;;;;;0.35;60.15;100877.25;5032543;28;20395;-80
2022/03/06 06:48:52;;;;;;;22.03;15.07;;;;;;;0.43;60.17;100879.88;5021733;28;20457;-77
2022/03/06 06:51:18;;;;;;;21.60;15.07;;;;;;;0.48;60.42;100874.91;5024368;28;20495;-78
2022/03/06 06:53:43;;;;;;;22.20;15.07;;;;;;;0.54;60.13;100884.03;5028146;28;20512;-77
2022/03/06 06:56:08;;;;;;;23.07;15.87;;;;;;;0.56;59.31;100887.34;5029648;28;20426;-78
2022/03/06 06:58:34;;;;;;;21.27;15.90;;;;;;;0.57;59.67;100889.03;5022864;28;20396;-77
2022/03/06 07:00:59;;;;;;;25.03;16.47;;;;;;;0.55;59.55;100896.38;5012433;28;20479;-77
2022/03/06 07:03:24;;;;;;;25.10;16.37;;;;;;;0.60;59.39;100896.69;5033608;28;20816;-77
2022/03/06 07:05:50;;;;;;;23.60;15.73;;;;;;;0.62;59.33;100896.53;5029345;28;20405;-78
2022/03/06 07:08:15;;;;;;;27.97;16.60;;;;;;;0.67;59.74;100900.34;5029414;28;20860;-78
2022/03/06 07:10:40;;;;;;;24.20;16.83;;;;;;;0.78;59.19;100905.34;5071165;28;20404;-78
2022/03/06 07:13:05;;;;;;;22.57;15.67;;;;;;;0.85;59.34;100906.31;5036203;28;20406;-76
2022/03/06 07:15:32;;;;;;;26.43;17.60;;;;;;;0.93;59.31;100906.28;5023430;28;20422;-77
2022/03/06 07:17:59;;;;;;;24.63;15.90;;;;;;;0.99;59.00;100921.59;5012077;28;20873;-77
2022/03/06 07:20:25;;;;;;;23.63;15.35;;;;;;;1.05;58.71;100912.09;5017380;28;20502;-77
2022/03/06 07:22:50;;;;;;;20.13;15.00;;;;;;;1.15;58.94;100917.22;5026368;28;20391;-77
2022/03/06 07:25:16;;;;;;;23.20;15.50;;;;;;;1.25;58.86;100913.31;5013503;28;20400;-77
2022/03/06 07:27:41;;;;;;;19.13;14.60;;;;;;;1.31;58.33;100920.66;5029255;28;20393;-77
2022/03/06 07:30:07;;;;;;;21.23;14.87;;;;;;;1.50;58.31;100925.56;5019469;28;20403;-77
2022/03/06 07:32:32;;;;;;;21.67;14.77;;;;;;;1.69;57.86;100926.13;5036533;28;20454;-77
2022/03/06 07:34:57;;;;;;;24.20;14.90;;;;;;;1.91;56.80;100917.31;5029787;28;20445;-79
2022/03/06 07:37:23;;;;;;;22.23;15.60;;;;;;;1.91;56.57;100920.78;5033771;28;20435;-78
2022/03/06 07:39:49;;;;;;;22.80;15.70;;;;;;;1.92;57.20;100925.16;5031760;28;20405;-79
2022/03/06 07:42:14;;;;;;;21.83;16.02;;;;;;;2.01;57.00;100929.41;5019391;28;20415;-78
2022/03/06 07:44:40;;;;;;;23.40;16.10;;;;;;;2.21;56.00;100927.09;5013718;28;20413;-78
2022/03/06 07:47:06;;;;;;;20.77;15.60;;;;;;;2.56;55.10;100925.63;5022500;28;20496;-78
2022/03/06 07:49:31;;;;;;;24.37;15.93;;;;;;;2.72;54.39;100919.28;5025843;28;20458;-78
2022/03/06 07:51:56;;;;;;;22.40;15.43;;;;;;;2.72;54.50;100922.81;5029217;28;20442;-77
2022/03/06 07:54:21;;;;;;;23.10;15.77;;;;;;;2.60;54.18;100918.91;5026137;28;20403;-78
2022/03/06 07:56:48;;;;;;;22.80;15.13;;;;;;;2.44;54.60;100927.06;5026982;28;20460;-78
2022/03/06 07:59:14;;;;;;;23.00;15.80;;;;;;;2.42;54.76;100927.25;5026497;28;20399;-78
2022/03/06 08:01:39;;;;;;;20.90;15.40;;;;;;;2.37;55.12;100929.63;5026763;28;20430;-78
2022/03/06 08:04:04;;;;;;;20.73;14.70;;;;;;;2.37;54.71;100926.97;5039239;28;20941;-78
2022/03/06 08:06:30;;;;;;;22.50;16.10;;;;;;;2.39;55.09;100924.94;5014547;28;20442;-77
2022/03/06 08:08:55;;;;;;;20.05;14.70;;;;;;;2.44;55.38;100932.41;5013405;28;20456;-78
2022/03/06 08:11:20;;;;;;;20.23;14.43;;;;;;;2.47;55.37;100924.06;5016957;28;20896;-78
2022/03/06 08:13:46;;;;;;;19.73;14.00;;;;;;;2.54;55.35;100931.16;5023839;28;20422;-77
2022/03/06 08:16:11;;;;;;;19.10;14.23;;;;;;;2.56;55.32;100939.00;5020168;28;20961;-77
2022/03/06 08:18:36;;;;;;;21.77;14.63;;;;;;;2.72;54.83;100927.31;5050482;28;20554;-78
2022/03/06 08:21:02;;;;;;;20.03;14.93;;;;;;;2.86;54.85;100931.88;5020302;28;20416;-77
2022/03/06 08:23:27;;;;;;;19.33;14.00;;;;;;;2.92;55.15;100928.44;5020223;28;20896;-77
2022/03/06 08:25:53;;;;;;;19.85;14.57;;;;;;;3.01;55.45;100922.81;5048616;28;20410;-78
2022/03/06 08:28:18;;;;;;;20.23;14.27;;;;;;;3.00;55.12;100934.53;5014742;28;20999;-77
2022/03/06 08:30:43;;;;;;;17.50;13.63;;;;;;;3.02;54.95;100927.16;5014421;28;20774;-77
2022/03/06 08:33:08;;;;;;;20.53;14.47;;;;;;;3.13;54.86;100929.38;5029637;28;20908;-78
2022/03/06 08:35:34;;;;;;;20.53;15.00;;;;;;;3.14;54.70;100933.72;5015262;28;20462;-77
2022/03/06 08:37:59;;;;;;;18.77;14.20;;;;;;;3.26;54.58;100923.34;5013318;28;20861;-77
2022/03/06 08:40:25;;;;;;;17.33;13.47;;;;;;;3.42;54.36;100928.53;5047116;28;20420;-78
2022/03/06 08:42:50;;;;;;;20.02;14.55;;;;;;;3.62;53.88;100931.44;5030600;28;20409;-78
2022/03/06 08:45:16;;;;;;;16.87;13.73;;;;;;;3.68;53.59;100928.00;5007868;28;20406;-78
2022/03/06 08:47:41;;;;;;;20.83;14.50;;;;;;;3.73;53.62;100924.75;5040503;28;20431;-78
2022/03/06 08:50:07;;;;;;;18.73;14.10;;;;;;;3.78;53.17;100927.72;5008391;28;20415;-77
2022/03/06 08:52:33;;;;;;;21.60;14.43;;;;;;;4.05;52.99;100924.28;5006686;28;20509;-78
2022/03/06 08:54:58;;;;;;;18.33;13.47;;;;;;;4.14;51.75;100923.97;5016555;28;20992;-78
2022/03/06 08:57:23;;;;;;;16.80;13.80;;;;;;;4.40;51.10;100919.84;5009943;28;20408;-78
2022/03/06 08:59:49;;;;;;;17.38;14.27;;;;;;;4.96;50.24;100929.59;5012259;28;20778;-78
2022/03/06 09:02:14;;;;;;;18.65;14.30;;;;;;;5.19;49.37;100923.94;5021283;28;20413;-78
2022/03/06 09:04:40;;;;;;;18.20;13.83;;;;;;;5.08;49.31;100919.09;5011316;28;20444;-77
2022/03/06 09:07:05;;;;;;;15.93;13.20;;;;;;;5.01;49.36;100920.91;5006260;28;20426;-77
2022/03/06 09:09:30;;;;;;;17.63;13.40;;;;;;;5.32;49.05;100913.25;5016970;28;20422;-77
2022/03/06 09:11:56;;;;;;;18.83;13.93;;;;;;;5.26;48.77;100907.84;5023293;28;20880;-78
2022/03/06 09:14:21;;;;;;;18.63;13.93;;;;;;;5.27;49.59;100914.88;5022703;28;20488;-78
2022/03/06 09:16:46;;;;;;;18.03;14.43;;;;;;;5.80;48.48;100921.28;5022859;28;23329;-78
2022/03/06 09:19:12;;;;;;;17.77;14.30;;;;;;;6.25;47.48;100917.91;5017746;28;20468;-78
2022/03/06 09:21:38;;;;;;;16.37;13.33;;;;;;;6.59;46.43;100922.25;5039287;28;20511;-78
2022/03/06 09:24:04;;;;;;;18.00;14.10;;;;;;;6.54;46.11;100922.88;5008154;28;20419;-78
2022/03/06 09:26:30;;;;;;;19.08;14.00;;;;;;;6.82;45.64;100922.66;5012744;28;20414;-78
2022/03/06 09:28:55;;;;;;;17.30;14.07;;;;;;;7.97;42.64;100928.06;5018611;28;22538;-78
2022/03/06 09:31:22;;;;;;;17.27;14.03;;;;;;;8.27;40.83;100918.31;5009365;28;20420;-79
2022/03/06 09:33:47;;;;;;;18.45;15.48;;;;;;;7.94;41.50;100930.34;5039955;28;20490;-79
2022/03/06 09:36:12;;;;;;;19.43;15.77;;;;;;;7.81;42.51;100920.47;5025856;28;20495;-78
2022/03/06 09:38:37;;;;;;;18.33;15.07;;;;;;;8.07;41.70;100914.91;5008006;28;20436;-78
2022/03/06 09:41:04;;;;;;;19.93;16.13;;;;;;;8.35;41.75;100919.97;5010569;28;20441;-78
2022/03/06 09:43:30;;;;;;;19.52;15.38;;;;;;;8.78;39.96;100917.31;5039303;28;20447;-80
2022/03/06 09:46:06;;;;;;;21.08;15.30;;;;;;;9.98;37.67;100924.66;5008994;28;20419;-80
2022/03/06 09:48:32;;;;;;;17.25;14.15;;;;;;;10.43;36.32;100919.66;5013349;28;20445;-78
2022/03/06 09:51:00;;;;;;;20.08;15.82;;;;;;;11.58;34.44;100909.81;5008266;28;20420;-79
2022/03/06 09:53:25;;;;;;;18.83;15.48;;;;;;;13.02;31.42;100914.56;5009427;28;20407;-80
2022/03/06 09:55:50;;;;;;;20.07;15.87;;;;;;;13.01;30.96;100912.06;5029270;28;20404;-80
2022/03/06 09:58:15;;;;;;;18.43;15.17;;;;;;;12.42;31.84;100908.16;5040665;28;20425;-81
2022/03/06 10:00:41;;;;;;;18.27;15.27;;;;;;;12.68;31.42;100915.66;5007849;28;20498;-80
2022/03/06 10:03:07;;;;;;;18.13;14.90;;;;;;;12.19;32.17;100913.72;5006958;28;20466;-80
2022/03/06 10:05:36;;;;;;;17.23;14.77;;;;;;;11.65;33.10;100915.09;5010766;28;20468;-81
2022/03/06 10:08:18;;;;;;;16.80;13.95;;;;;;;12.10;33.27;100910.59;5004620;28;20425;-79
2022/03/06 10:10:44;;;;;;;18.67;14.77;;;;;;;13.13;31.86;100904.69;4996533;28;20433;-80
2022/03/06 10:13:34;;;;;;;15.70;13.95;;;;;;;15.10;28.74;100909.44;4998326;28;20924;-80
2022/03/06 10:16:09;;;;;;;16.88;14.57;;;;;;;16.12;27.11;100906.06;4997078;28;20420;-80
2022/03/06 10:18:37;;;;;;;16.80;13.73;;;;;;;16.92;25.83;100901.75;5017142;28;20424;-79
2022/03/06 10:21:08;;;;;;;16.33;14.43;;;;;;;17.98;24.27;100904.16;4996757;28;20425;-79
2022/03/06 10:23:35;;;;;;;15.48;13.68;;;;;;;18.30;22.87;100904.47;4998371;28;20853;-80
2022/03/06 10:26:06;;;;;;;15.07;13.57;;;;;;;19.03;21.91;100913.47;5010555;28;20658;-79
2022/03/06 10:28:42;;;;;;;15.32;13.45;;;;;;;19.87;21.17;100909.25;4996577;28;20417;-79
2022/03/06 10:31:07;;;;;;;14.35;12.85;;;;;;;20.06;20.37;100909.25;4997978;28;20409;-80
2022/03/06 10:33:33;;;;;;;14.63;13.23;;;;;;;20.91;19.40;100909.03;4997736;28;20418;-79
2022/03/06 10:36:01;;;;;;;15.67;14.13;;;;;;;20.85;19.06;100919.31;4999004;28;20417;-80
2022/03/06 10:38:34;;;;;;;14.40;12.90;;;;;;;20.65;19.30;100919.66;4998208;28;20509;-80
2022/03/06 10:41:15;;;;;;;16.45;14.75;;;;;;;19.41;19.16;100919.16;4996418;28;20419;-80
2022/03/06 10:43:41;;;;;;;14.48;13.05;;;;;;;18.52;21.08;100921.34;4999926;28;20407;-81
2022/03/06 10:46:13;;;;;;;14.63;13.13;;;;;;;19.66;20.32;100924.34;4995346;28;20448;-80
2022/03/06 10:48:41;;;;;;;13.70;12.30;;;;;;;19.99;19.69;100917.06;4999376;28;20431;-80
2022/03/06 10:51:11;;;;;;;13.25;12.00;;;;;;;20.31;19.34;100908.09;4997480;28;20418;-80
2022/03/06 10:53:37;;;;;;;13.57;12.27;;;;;;;20.27;18.80;100909.81;5008892;28;20415;-82
2022/03/06 10:56:09;;;;;;;13.70;11.77;;;;;;;18.38;20.48;100911.25;4996263;28;20419;-80
2022/03/06 10:58:37;;;;;;;14.65;13.00;;;;;;;14.80;24.38;100920.13;5012112;28;20452;-79
2022/03/06 11:01:03;;;;;;;12.38;11.07;;;;;;;11.76;28.19;100922.41;4995652;28;20418;-79
2022/03/06 11:03:37;;;;;;;12.48;11.07;;;;;;;9.50;32.08;100919.25;5015561;28;20971;-79
2022/03/06 11:06:04;;;;;;;15.70;11.87;;;;;;;9.01;33.61;100931.03;5002240;28;20408;-79
2022/03/06 11:08:30;;;;;;;13.90;12.40;;;;;;;8.50;34.44;100919.63;5020211;28;20778;-79
2022/03/06 11:10:55;;;;;;;15.20;12.68;;;;;;;8.64;34.32;100927.41;5001115;28;20414;-79
2022/03/06 11:13:21;;;;;;;14.50;12.93;;;;;;;8.64;34.10;100931.97;5002793;28;20426;-78